sensor_id;sensor_type;location;lat;lon;timestamp;P1;durP1;ratioP1;P2;durP2;ratioP2
4700;SDS011;8724;51.272;6.554;2022-12-18T00:00:07;12.30;;;9.67;;
4700;SDS011;8724;51.272;6.554;2022-12-18T00:02:48;12.57;;;10.10;;
4700;SDS011;8724;51.272;6.554;2022-12-18T00:05:17;11.63;;;9.67;;
4700;SDS011;8724;51.272;6.554;2022-12-18T00:07:48;12.93;;;10.70;;
4700;SDS011;8724;51.272;6.554;2022-12-18T00:10:16;12.63;;;10.27;;
4700;SDS011;8724;51.272;6.554;2022-12-18T00:12:44;13.20;;;10.50;;
4700;SDS011;8724;51.272;6.554;2022-12-18T00:15:13;11.93;;;10.00;;
4700;SDS011;8724;51.272;6.554;2022-12-18T00:17:42;10.00;;;8.53;;
4700;SDS011;8724;51.272;6.554;2022-12-18T00:20:11;12.70;;;9.10;;
4700;SDS011;8724;51.272;6.554;2022-12-18T00:22:39;11.33;;;8.93;;
4700;SDS011;8724;51.272;6.554;2022-12-18T00:25:08;10.53;;;9.00;;
4700;SDS011;8724;51.272;6.554;2022-12-18T00:27:36;10.27;;;9.10;;
4700;SDS011;8724;51.272;6.554;2022-12-18T00:30:04;13.23;;;9.70;;
4700;SDS011;8724;51.272;6.554;2022-12-18T00:32:35;11.03;;;9.43;;
4700;SDS011;8724;51.272;6.554;2022-12-18T00:35:03;11.43;;;9.33;;
4700;SDS011;8724;51.272;6.554;2022-12-18T00:37:34;11.00;;;9.47;;
4700;SDS011;8724;51.272;6.554;2022-12-18T00:40:04;9.50;;;8.50;;
4700;SDS011;8724;51.272;6.554;2022-12-18T00:42:32;11.17;;;9.73;;
4700;SDS011;8724;51.272;6.554;2022-12-18T00:45:18;9.33;;;7.83;;
4700;SDS011;8724;51.272;6.554;2022-12-18T00:47:46;10.00;;;8.53;;
4700;SDS011;8724;51.272;6.554;2022-12-18T00:50:14;9.80;;;8.37;;
4700;SDS011;8724;51.272;6.554;2022-12-18T00:52:44;9.90;;;8.60;;
4700;SDS011;8724;51.272;6.554;2022-12-18T00:55:13;10.70;;;8.63;;
4700;SDS011;8724;51.272;6.554;2022-12-18T00:57:42;9.80;;;8.30;;
4700;SDS011;8724;51.272;6.554;2022-12-18T01:00:11;8.10;;;7.30;;
4700;SDS011;8724;51.272;6.554;2022-12-18T01:02:42;12.07;;;9.23;;
4700;SDS011;8724;51.272;6.554;2022-12-18T01:05:12;10.50;;;9.30;;
4700;SDS011;8724;51.272;6.554;2022-12-18T01:07:40;9.27;;;8.00;;
4700;SDS011;8724;51.272;6.554;2022-12-18T01:10:11;8.80;;;7.90;;
4700;SDS011;8724;51.272;6.554;2022-12-18T01:12:40;8.97;;;7.50;;
4700;SDS011;8724;51.272;6.554;2022-12-18T01:15:10;8.07;;;7.23;;
4700;SDS011;8724;51.272;6.554;2022-12-18T01:17:40;10.40;;;8.60;;
4700;SDS011;8724;51.272;6.554;2022-12-18T01:20:09;9.20;;;8.20;;
4700;SDS011;8724;51.272;6.554;2022-12-18T01:22:39;10.17;;;8.30;;
4700;SDS011;8724;51.272;6.554;2022-12-18T01:25:08;11.60;;;8.83;;
4700;SDS011;8724;51.272;6.554;2022-12-18T01:27:37;10.20;;;8.77;;
4700;SDS011;8724;51.272;6.554;2022-12-18T01:30:06;9.13;;;8.20;;
4700;SDS011;8724;51.272;6.554;2022-12-18T01:32:35;10.80;;;9.30;;
4700;SDS011;8724;51.272;6.554;2022-12-18T01:35:03;9.63;;;8.63;;
4700;SDS011;8724;51.272;6.554;2022-12-18T01:37:32;12.20;;;9.17;;
4700;SDS011;8724;51.272;6.554;2022-12-18T01:40:00;13.60;;;9.87;;
4700;SDS011;8724;51.272;6.554;2022-12-18T01:42:28;11.30;;;9.47;;
4700;SDS011;8724;51.272;6.554;2022-12-18T01:47:53;11.53;;;9.00;;
4700;SDS011;8724;51.272;6.554;2022-12-18T01:50:24;10.07;;;8.20;;
4700;SDS011;8724;51.272;6.554;2022-12-18T01:52:56;12.50;;;8.60;;
4700;SDS011;8724;51.272;6.554;2022-12-18T01:55:28;11.40;;;9.10;;
4700;SDS011;8724;51.272;6.554;2022-12-18T01:57:59;12.30;;;8.90;;
4700;SDS011;8724;51.272;6.554;2022-12-18T02:00:29;10.00;;;8.93;;
4700;SDS011;8724;51.272;6.554;2022-12-18T02:02:58;10.63;;;9.07;;
4700;SDS011;8724;51.272;6.554;2022-12-18T02:05:30;10.70;;;9.23;;
4700;SDS011;8724;51.272;6.554;2022-12-18T02:08:09;11.00;;;9.23;;
4700;SDS011;8724;51.272;6.554;2022-12-18T02:10:42;13.17;;;9.30;;
4700;SDS011;8724;51.272;6.554;2022-12-18T02:13:19;9.43;;;8.43;;
4700;SDS011;8724;51.272;6.554;2022-12-18T02:15:54;12.50;;;9.10;;
4700;SDS011;8724;51.272;6.554;2022-12-18T02:18:30;10.80;;;8.57;;
4700;SDS011;8724;51.272;6.554;2022-12-18T02:21:04;12.87;;;10.00;;
4700;SDS011;8724;51.272;6.554;2022-12-18T02:23:44;10.87;;;9.13;;
4700;SDS011;8724;51.272;6.554;2022-12-18T02:26:21;11.83;;;10.00;;
4700;SDS011;8724;51.272;6.554;2022-12-18T02:28:56;11.57;;;8.93;;
4700;SDS011;8724;51.272;6.554;2022-12-18T02:31:30;11.73;;;9.93;;
4700;SDS011;8724;51.272;6.554;2022-12-18T02:34:03;11.00;;;9.13;;
4700;SDS011;8724;51.272;6.554;2022-12-18T02:36:37;10.73;;;9.43;;
4700;SDS011;8724;51.272;6.554;2022-12-18T02:39:10;11.80;;;10.00;;
4700;SDS011;8724;51.272;6.554;2022-12-18T02:41:52;10.67;;;8.73;;
4700;SDS011;8724;51.272;6.554;2022-12-18T02:44:23;12.00;;;10.10;;
4700;SDS011;8724;51.272;6.554;2022-12-18T02:46:53;7.87;;;7.00;;
4700;SDS011;8724;51.272;6.554;2022-12-18T02:49:24;10.03;;;8.13;;
4700;SDS011;8724;51.272;6.554;2022-12-18T02:52:01;12.37;;;10.20;;
4700;SDS011;8724;51.272;6.554;2022-12-18T02:54:47;10.53;;;8.53;;
4700;SDS011;8724;51.272;6.554;2022-12-18T02:57:27;11.30;;;9.33;;
4700;SDS011;8724;51.272;6.554;2022-12-18T03:00:04;12.67;;;9.97;;
4700;SDS011;8724;51.272;6.554;2022-12-18T03:02:38;9.93;;;8.53;;
4700;SDS011;8724;51.272;6.554;2022-12-18T03:05:12;14.70;;;10.50;;
4700;SDS011;8724;51.272;6.554;2022-12-18T03:07:45;13.37;;;10.77;;
4700;SDS011;8724;51.272;6.554;2022-12-18T03:10:18;10.97;;;8.30;;
4700;SDS011;8724;51.272;6.554;2022-12-18T03:12:53;9.70;;;8.70;;
4700;SDS011;8724;51.272;6.554;2022-12-18T03:15:28;12.23;;;9.40;;
4700;SDS011;8724;51.272;6.554;2022-12-18T03:18:08;12.17;;;10.10;;
4700;SDS011;8724;51.272;6.554;2022-12-18T03:20:41;10.67;;;8.77;;
4700;SDS011;8724;51.272;6.554;2022-12-18T03:23:15;10.33;;;8.60;;
4700;SDS011;8724;51.272;6.554;2022-12-18T03:25:52;10.57;;;8.83;;
4700;SDS011;8724;51.272;6.554;2022-12-18T03:28:38;9.73;;;8.63;;
4700;SDS011;8724;51.272;6.554;2022-12-18T03:31:11;12.47;;;8.63;;
4700;SDS011;8724;51.272;6.554;2022-12-18T03:33:44;11.10;;;9.40;;
4700;SDS011;8724;51.272;6.554;2022-12-18T03:36:23;12.50;;;9.33;;
4700;SDS011;8724;51.272;6.554;2022-12-18T03:38:52;10.70;;;9.07;;
4700;SDS011;8724;51.272;6.554;2022-12-18T03:41:24;10.10;;;8.50;;
4700;SDS011;8724;51.272;6.554;2022-12-18T03:44:20;12.63;;;10.10;;
4700;SDS011;8724;51.272;6.554;2022-12-18T03:46:55;11.43;;;9.90;;
4700;SDS011;8724;51.272;6.554;2022-12-18T03:49:33;13.20;;;9.13;;
4700;SDS011;8724;51.272;6.554;2022-12-18T03:52:07;10.50;;;9.33;;
4700;SDS011;8724;51.272;6.554;2022-12-18T03:54:39;12.90;;;9.23;;
4700;SDS011;8724;51.272;6.554;2022-12-18T03:57:13;12.57;;;9.33;;
4700;SDS011;8724;51.272;6.554;2022-12-18T03:59:45;11.70;;;9.23;;
4700;SDS011;8724;51.272;6.554;2022-12-18T04:02:18;9.50;;;8.60;;
4700;SDS011;8724;51.272;6.554;2022-12-18T04:04:49;9.10;;;8.00;;
4700;SDS011;8724;51.272;6.554;2022-12-18T04:07:28;11.00;;;8.83;;
4700;SDS011;8724;51.272;6.554;2022-12-18T04:09:57;11.80;;;9.10;;
4700;SDS011;8724;51.272;6.554;2022-12-18T04:12:29;10.30;;;8.17;;
4700;SDS011;8724;51.272;6.554;2022-12-18T04:14:59;9.20;;;8.27;;
4700;SDS011;8724;51.272;6.554;2022-12-18T04:17:28;8.47;;;7.27;;
4700;SDS011;8724;51.272;6.554;2022-12-18T04:19:56;10.40;;;8.30;;
4700;SDS011;8724;51.272;6.554;2022-12-18T04:22:25;10.47;;;8.30;;
4700;SDS011;8724;51.272;6.554;2022-12-18T04:24:57;13.10;;;8.70;;
4700;SDS011;8724;51.272;6.554;2022-12-18T04:27:34;8.90;;;8.00;;
4700;SDS011;8724;51.272;6.554;2022-12-18T04:30:06;8.40;;;7.27;;
4700;SDS011;8724;51.272;6.554;2022-12-18T04:32:34;8.60;;;7.47;;
4700;SDS011;8724;51.272;6.554;2022-12-18T04:35:03;11.50;;;9.00;;
4700;SDS011;8724;51.272;6.554;2022-12-18T04:37:34;10.50;;;8.43;;
4700;SDS011;8724;51.272;6.554;2022-12-18T04:40:04;10.47;;;8.70;;
4700;SDS011;8724;51.272;6.554;2022-12-18T04:42:39;9.77;;;7.77;;
4700;SDS011;8724;51.272;6.554;2022-12-18T04:45:09;11.77;;;8.80;;
4700;SDS011;8724;51.272;6.554;2022-12-18T04:47:37;12.33;;;8.70;;
4700;SDS011;8724;51.272;6.554;2022-12-18T04:50:06;9.63;;;7.97;;
4700;SDS011;8724;51.272;6.554;2022-12-18T04:52:35;8.40;;;7.13;;
4700;SDS011;8724;51.272;6.554;2022-12-18T04:55:04;11.90;;;8.40;;
4700;SDS011;8724;51.272;6.554;2022-12-18T04:57:33;11.63;;;9.07;;
4700;SDS011;8724;51.272;6.554;2022-12-18T05:00:07;9.73;;;8.30;;
4700;SDS011;8724;51.272;6.554;2022-12-18T05:02:37;9.60;;;8.43;;
4700;SDS011;8724;51.272;6.554;2022-12-18T05:05:08;9.10;;;7.73;;
4700;SDS011;8724;51.272;6.554;2022-12-18T05:07:36;9.00;;;7.63;;
4700;SDS011;8724;51.272;6.554;2022-12-18T05:10:08;8.33;;;7.00;;
4700;SDS011;8724;51.272;6.554;2022-12-18T05:12:37;9.57;;;8.13;;
4700;SDS011;8724;51.272;6.554;2022-12-18T05:15:30;9.37;;;7.70;;
4700;SDS011;8724;51.272;6.554;2022-12-18T05:18:02;9.07;;;7.60;;
4700;SDS011;8724;51.272;6.554;2022-12-18T05:20:33;9.60;;;8.60;;
4700;SDS011;8724;51.272;6.554;2022-12-18T05:23:03;9.33;;;7.30;;
4700;SDS011;8724;51.272;6.554;2022-12-18T05:25:34;8.20;;;7.10;;
4700;SDS011;8724;51.272;6.554;2022-12-18T05:28:03;7.17;;;6.47;;
4700;SDS011;8724;51.272;6.554;2022-12-18T05:30:33;8.17;;;7.27;;
4700;SDS011;8724;51.272;6.554;2022-12-18T05:33:02;8.17;;;7.07;;
4700;SDS011;8724;51.272;6.554;2022-12-18T05:35:33;39.50;;;27.07;;
4700;SDS011;8724;51.272;6.554;2022-12-18T05:38:06;76.27;;;54.73;;
4700;SDS011;8724;51.272;6.554;2022-12-18T05:40:34;75.53;;;53.33;;
4700;SDS011;8724;51.272;6.554;2022-12-18T05:43:03;86.00;;;60.70;;
4700;SDS011;8724;51.272;6.554;2022-12-18T05:45:36;45.33;;;33.87;;
4700;SDS011;8724;51.272;6.554;2022-12-18T05:48:04;27.33;;;18.93;;
4700;SDS011;8724;51.272;6.554;2022-12-18T05:50:40;14.53;;;11.70;;
4700;SDS011;8724;51.272;6.554;2022-12-18T05:53:10;10.43;;;9.37;;
4700;SDS011;8724;51.272;6.554;2022-12-18T05:55:42;8.57;;;7.77;;
4700;SDS011;8724;51.272;6.554;2022-12-18T05:58:14;8.03;;;7.23;;
4700;SDS011;8724;51.272;6.554;2022-12-18T06:00:48;9.03;;;7.53;;
4700;SDS011;8724;51.272;6.554;2022-12-18T06:03:19;9.90;;;8.20;;
4700;SDS011;8724;51.272;6.554;2022-12-18T06:05:48;8.63;;;7.47;;
4700;SDS011;8724;51.272;6.554;2022-12-18T06:08:18;7.57;;;6.80;;
4700;SDS011;8724;51.272;6.554;2022-12-18T06:10:51;10.63;;;7.87;;
4700;SDS011;8724;51.272;6.554;2022-12-18T06:13:21;9.97;;;8.30;;
4700;SDS011;8724;51.272;6.554;2022-12-18T06:15:51;10.33;;;7.97;;
4700;SDS011;8724;51.272;6.554;2022-12-18T06:18:19;8.47;;;7.57;;
4700;SDS011;8724;51.272;6.554;2022-12-18T06:20:54;8.80;;;7.50;;
4700;SDS011;8724;51.272;6.554;2022-12-18T06:23:25;10.20;;;7.80;;
4700;SDS011;8724;51.272;6.554;2022-12-18T06:25:57;8.83;;;7.60;;
4700;SDS011;8724;51.272;6.554;2022-12-18T06:28:26;10.13;;;7.97;;
4700;SDS011;8724;51.272;6.554;2022-12-18T06:30:56;9.30;;;7.97;;
4700;SDS011;8724;51.272;6.554;2022-12-18T06:33:28;9.17;;;8.27;;
4700;SDS011;8724;51.272;6.554;2022-12-18T06:35:59;10.20;;;8.63;;
4700;SDS011;8724;51.272;6.554;2022-12-18T06:38:38;9.10;;;8.20;;
4700;SDS011;8724;51.272;6.554;2022-12-18T06:41:24;10.90;;;8.30;;
4700;SDS011;8724;51.272;6.554;2022-12-18T06:43:52;9.50;;;7.80;;
4700;SDS011;8724;51.272;6.554;2022-12-18T06:46:27;86.37;;;63.07;;
4700;SDS011;8724;51.272;6.554;2022-12-18T06:48:56;92.43;;;62.50;;
4700;SDS011;8724;51.272;6.554;2022-12-18T06:51:24;41.20;;;30.90;;
4700;SDS011;8724;51.272;6.554;2022-12-18T06:53:53;25.77;;;18.97;;
4700;SDS011;8724;51.272;6.554;2022-12-18T06:56:21;19.50;;;14.10;;
4700;SDS011;8724;51.272;6.554;2022-12-18T06:58:51;13.87;;;10.23;;
4700;SDS011;8724;51.272;6.554;2022-12-18T07:01:20;11.17;;;10.03;;
4700;SDS011;8724;51.272;6.554;2022-12-18T07:03:52;10.77;;;9.17;;
4700;SDS011;8724;51.272;6.554;2022-12-18T07:06:24;11.00;;;9.40;;
4700;SDS011;8724;51.272;6.554;2022-12-18T07:08:53;9.10;;;7.70;;
4700;SDS011;8724;51.272;6.554;2022-12-18T07:11:24;9.03;;;8.10;;
4700;SDS011;8724;51.272;6.554;2022-12-18T07:13:52;9.60;;;8.07;;
4700;SDS011;8724;51.272;6.554;2022-12-18T07:16:21;8.60;;;7.63;;
4700;SDS011;8724;51.272;6.554;2022-12-18T07:18:53;8.30;;;7.30;;
4700;SDS011;8724;51.272;6.554;2022-12-18T07:21:24;9.87;;;8.43;;
4700;SDS011;8724;51.272;6.554;2022-12-18T07:23:52;9.03;;;8.13;;
4700;SDS011;8724;51.272;6.554;2022-12-18T07:26:21;9.30;;;7.97;;
4700;SDS011;8724;51.272;6.554;2022-12-18T07:28:49;9.43;;;7.33;;
4700;SDS011;8724;51.272;6.554;2022-12-18T07:31:18;9.00;;;7.90;;
4700;SDS011;8724;51.272;6.554;2022-12-18T07:33:48;9.57;;;8.20;;
4700;SDS011;8724;51.272;6.554;2022-12-18T07:36:19;10.87;;;8.20;;
4700;SDS011;8724;51.272;6.554;2022-12-18T07:38:50;31.77;;;23.97;;
4700;SDS011;8724;51.272;6.554;2022-12-18T07:41:19;54.40;;;41.33;;
4700;SDS011;8724;51.272;6.554;2022-12-18T07:43:48;43.67;;;30.97;;
4700;SDS011;8724;51.272;6.554;2022-12-18T07:46:16;28.07;;;20.97;;
4700;SDS011;8724;51.272;6.554;2022-12-18T07:48:44;17.73;;;12.87;;
4700;SDS011;8724;51.272;6.554;2022-12-18T07:51:15;14.23;;;10.97;;
4700;SDS011;8724;51.272;6.554;2022-12-18T07:53:46;15.37;;;10.20;;
4700;SDS011;8724;51.272;6.554;2022-12-18T07:56:18;9.80;;;8.80;;
4700;SDS011;8724;51.272;6.554;2022-12-18T07:58:53;9.47;;;8.30;;
4700;SDS011;8724;51.272;6.554;2022-12-18T08:01:24;9.13;;;8.17;;
4700;SDS011;8724;51.272;6.554;2022-12-18T08:03:53;8.93;;;7.83;;
4700;SDS011;8724;51.272;6.554;2022-12-18T08:06:21;11.50;;;8.27;;
4700;SDS011;8724;51.272;6.554;2022-12-18T08:08:52;9.97;;;8.03;;
4700;SDS011;8724;51.272;6.554;2022-12-18T08:11:21;9.40;;;8.40;;
4700;SDS011;8724;51.272;6.554;2022-12-18T08:13:52;9.10;;;7.90;;
4700;SDS011;8724;51.272;6.554;2022-12-18T08:16:21;9.10;;;7.90;;
4700;SDS011;8724;51.272;6.554;2022-12-18T08:18:51;12.93;;;8.60;;
4700;SDS011;8724;51.272;6.554;2022-12-18T08:21:20;10.07;;;9.03;;
4700;SDS011;8724;51.272;6.554;2022-12-18T08:23:52;10.37;;;8.70;;
4700;SDS011;8724;51.272;6.554;2022-12-18T08:26:21;11.93;;;9.23;;
4700;SDS011;8724;51.272;6.554;2022-12-18T08:28:50;13.80;;;12.20;;
4700;SDS011;8724;51.272;6.554;2022-12-18T08:31:19;36.93;;;27.30;;
4700;SDS011;8724;51.272;6.554;2022-12-18T08:33:49;40.07;;;29.93;;
4700;SDS011;8724;51.272;6.554;2022-12-18T08:36:19;23.67;;;18.43;;
4700;SDS011;8724;51.272;6.554;2022-12-18T08:38:47;16.70;;;13.87;;
4700;SDS011;8724;51.272;6.554;2022-12-18T08:41:18;13.43;;;10.53;;
4700;SDS011;8724;51.272;6.554;2022-12-18T08:43:46;11.00;;;9.17;;
4700;SDS011;8724;51.272;6.554;2022-12-18T08:46:33;9.63;;;8.50;;
4700;SDS011;8724;51.272;6.554;2022-12-18T08:49:03;9.90;;;8.60;;
4700;SDS011;8724;51.272;6.554;2022-12-18T08:51:32;9.90;;;8.77;;
4700;SDS011;8724;51.272;6.554;2022-12-18T08:54:02;10.37;;;8.57;;
4700;SDS011;8724;51.272;6.554;2022-12-18T08:56:33;10.40;;;7.97;;
4700;SDS011;8724;51.272;6.554;2022-12-18T08:59:01;10.00;;;9.00;;
4700;SDS011;8724;51.272;6.554;2022-12-18T09:01:30;11.43;;;8.77;;
4700;SDS011;8724;51.272;6.554;2022-12-18T09:03:59;9.00;;;7.90;;
4700;SDS011;8724;51.272;6.554;2022-12-18T09:06:27;10.20;;;9.10;;
4700;SDS011;8724;51.272;6.554;2022-12-18T09:08:56;10.57;;;8.43;;
4700;SDS011;8724;51.272;6.554;2022-12-18T09:11:27;11.60;;;8.50;;
4700;SDS011;8724;51.272;6.554;2022-12-18T09:13:58;9.77;;;7.80;;
4700;SDS011;8724;51.272;6.554;2022-12-18T09:16:28;10.67;;;9.00;;
4700;SDS011;8724;51.272;6.554;2022-12-18T09:19:04;9.40;;;8.40;;
4700;SDS011;8724;51.272;6.554;2022-12-18T09:21:42;10.50;;;8.93;;
4700;SDS011;8724;51.272;6.554;2022-12-18T09:24:14;46.93;;;32.90;;
4700;SDS011;8724;51.272;6.554;2022-12-18T09:26:42;173.13;;;117.67;;
4700;SDS011;8724;51.272;6.554;2022-12-18T09:29:14;58.43;;;41.77;;
4700;SDS011;8724;51.272;6.554;2022-12-18T09:31:44;35.17;;;23.77;;
4700;SDS011;8724;51.272;6.554;2022-12-18T09:34:13;21.70;;;16.73;;
4700;SDS011;8724;51.272;6.554;2022-12-18T09:36:41;17.63;;;13.43;;
4700;SDS011;8724;51.272;6.554;2022-12-18T09:39:09;13.73;;;11.37;;
4700;SDS011;8724;51.272;6.554;2022-12-18T09:41:41;11.00;;;9.40;;
4700;SDS011;8724;51.272;6.554;2022-12-18T09:44:17;10.53;;;9.43;;
4700;SDS011;8724;51.272;6.554;2022-12-18T09:46:54;8.90;;;8.00;;
4700;SDS011;8724;51.272;6.554;2022-12-18T09:49:38;10.43;;;8.83;;
4700;SDS011;8724;51.272;6.554;2022-12-18T09:52:11;8.50;;;7.40;;
4700;SDS011;8724;51.272;6.554;2022-12-18T09:54:45;9.87;;;8.87;;
4700;SDS011;8724;51.272;6.554;2022-12-18T09:57:18;10.63;;;8.70;;
4700;SDS011;8724;51.272;6.554;2022-12-18T09:59:51;9.87;;;8.83;;
4700;SDS011;8724;51.272;6.554;2022-12-18T10:02:25;12.20;;;9.57;;
4700;SDS011;8724;51.272;6.554;2022-12-18T10:04:57;10.80;;;8.80;;
4700;SDS011;8724;51.272;6.554;2022-12-18T10:07:40;10.90;;;8.53;;
4700;SDS011;8724;51.272;6.554;2022-12-18T10:10:23;10.47;;;8.53;;
4700;SDS011;8724;51.272;6.554;2022-12-18T10:12:58;12.10;;;9.93;;
4700;SDS011;8724;51.272;6.554;2022-12-18T10:15:39;11.43;;;9.10;;
4700;SDS011;8724;51.272;6.554;2022-12-18T10:18:19;33.50;;;23.73;;
4700;SDS011;8724;51.272;6.554;2022-12-18T10:20:54;41.83;;;31.57;;
4700;SDS011;8724;51.272;6.554;2022-12-18T10:23:28;23.80;;;17.63;;
4700;SDS011;8724;51.272;6.554;2022-12-18T10:26:02;18.93;;;14.77;;
4700;SDS011;8724;51.272;6.554;2022-12-18T10:28:32;14.03;;;11.40;;
4700;SDS011;8724;51.272;6.554;2022-12-18T10:31:07;12.40;;;10.53;;
4700;SDS011;8724;51.272;6.554;2022-12-18T10:33:42;10.83;;;9.73;;
4700;SDS011;8724;51.272;6.554;2022-12-18T10:36:11;9.93;;;8.87;;
4700;SDS011;8724;51.272;6.554;2022-12-18T10:38:40;11.77;;;9.30;;
4700;SDS011;8724;51.272;6.554;2022-12-18T10:41:22;12.27;;;9.37;;
4700;SDS011;8724;51.272;6.554;2022-12-18T10:44:10;13.10;;;10.50;;
4700;SDS011;8724;51.272;6.554;2022-12-18T10:46:45;9.83;;;8.60;;
4700;SDS011;8724;51.272;6.554;2022-12-18T10:49:21;9.67;;;8.77;;
4700;SDS011;8724;51.272;6.554;2022-12-18T10:51:51;10.63;;;9.37;;
4700;SDS011;8724;51.272;6.554;2022-12-18T10:54:32;10.40;;;9.40;;
4700;SDS011;8724;51.272;6.554;2022-12-18T10:57:15;11.03;;;9.87;;
4700;SDS011;8724;51.272;6.554;2022-12-18T10:59:51;12.73;;;10.10;;
4700;SDS011;8724;51.272;6.554;2022-12-18T11:02:33;11.87;;;10.10;;
4700;SDS011;8724;51.272;6.554;2022-12-18T11:05:04;11.20;;;9.23;;
4700;SDS011;8724;51.272;6.554;2022-12-18T11:07:52;11.73;;;10.50;;
4700;SDS011;8724;51.272;6.554;2022-12-18T11:10:21;10.90;;;9.47;;
4700;SDS011;8724;51.272;6.554;2022-12-18T11:12:55;10.40;;;9.30;;
4700;SDS011;8724;51.272;6.554;2022-12-18T11:15:25;9.80;;;8.80;;
4700;SDS011;8724;51.272;6.554;2022-12-18T11:17:58;12.63;;;9.80;;
4700;SDS011;8724;51.272;6.554;2022-12-18T11:20:30;11.10;;;9.90;;
4700;SDS011;8724;51.272;6.554;2022-12-18T11:23:00;10.17;;;9.17;;
4700;SDS011;8724;51.272;6.554;2022-12-18T11:25:31;11.77;;;9.93;;
4700;SDS011;8724;51.272;6.554;2022-12-18T11:28:02;11.97;;;10.77;;
4700;SDS011;8724;51.272;6.554;2022-12-18T11:30:32;21.50;;;18.10;;
4700;SDS011;8724;51.272;6.554;2022-12-18T11:33:04;50.87;;;36.00;;
4700;SDS011;8724;51.272;6.554;2022-12-18T11:35:38;28.83;;;23.00;;
4700;SDS011;8724;51.272;6.554;2022-12-18T11:38:18;21.07;;;15.90;;
4700;SDS011;8724;51.272;6.554;2022-12-18T11:40:51;15.27;;;12.50;;
4700;SDS011;8724;51.272;6.554;2022-12-18T11:43:25;11.87;;;10.60;;
4700;SDS011;8724;51.272;6.554;2022-12-18T11:45:59;11.30;;;10.10;;
4700;SDS011;8724;51.272;6.554;2022-12-18T11:48:34;12.40;;;11.10;;
4700;SDS011;8724;51.272;6.554;2022-12-18T11:51:09;14.53;;;11.50;;
4700;SDS011;8724;51.272;6.554;2022-12-18T11:53:42;13.87;;;11.70;;
4700;SDS011;8724;51.272;6.554;2022-12-18T11:56:15;11.17;;;9.93;;
4700;SDS011;8724;51.272;6.554;2022-12-18T11:58:56;13.50;;;11.00;;
4700;SDS011;8724;51.272;6.554;2022-12-18T12:01:42;12.73;;;10.00;;
4700;SDS011;8724;51.272;6.554;2022-12-18T12:07:20;12.70;;;10.90;;
4700;SDS011;8724;51.272;6.554;2022-12-18T12:09:59;11.83;;;9.90;;
4700;SDS011;8724;51.272;6.554;2022-12-18T12:12:36;12.50;;;11.00;;
4700;SDS011;8724;51.272;6.554;2022-12-18T12:15:23;11.90;;;9.83;;
4700;SDS011;8724;51.272;6.554;2022-12-18T12:17:59;12.83;;;11.43;;
4700;SDS011;8724;51.272;6.554;2022-12-18T12:20:42;9.97;;;9.00;;
4700;SDS011;8724;51.272;6.554;2022-12-18T12:23:20;13.37;;;11.00;;
4700;SDS011;8724;51.272;6.554;2022-12-18T12:25:56;11.47;;;10.03;;
4700;SDS011;8724;51.272;6.554;2022-12-18T12:28:34;13.23;;;11.20;;
4700;SDS011;8724;51.272;6.554;2022-12-18T12:31:28;12.33;;;10.53;;
4700;SDS011;8724;51.272;6.554;2022-12-18T12:34:19;30.13;;;24.37;;
4700;SDS011;8724;51.272;6.554;2022-12-18T12:36:57;38.43;;;28.27;;
4700;SDS011;8724;51.272;6.554;2022-12-18T12:39:37;31.67;;;25.67;;
4700;SDS011;8724;51.272;6.554;2022-12-18T12:42:10;21.63;;;19.20;;
4700;SDS011;8724;51.272;6.554;2022-12-18T12:45:05;15.50;;;13.67;;
4700;SDS011;8724;51.272;6.554;2022-12-18T12:47:35;13.00;;;11.30;;
4700;SDS011;8724;51.272;6.554;2022-12-18T12:50:11;14.73;;;12.87;;
4700;SDS011;8724;51.272;6.554;2022-12-18T12:52:45;14.80;;;12.40;;
4700;SDS011;8724;51.272;6.554;2022-12-18T12:55:17;13.33;;;12.00;;
4700;SDS011;8724;51.272;6.554;2022-12-18T12:57:52;14.77;;;12.80;;
4700;SDS011;8724;51.272;6.554;2022-12-18T13:00:27;15.40;;;12.63;;
4700;SDS011;8724;51.272;6.554;2022-12-18T13:03:04;14.40;;;12.30;;
4700;SDS011;8724;51.272;6.554;2022-12-18T13:05:41;13.10;;;11.63;;
4700;SDS011;8724;51.272;6.554;2022-12-18T13:08:24;13.77;;;12.13;;
4700;SDS011;8724;51.272;6.554;2022-12-18T13:10:56;15.63;;;13.00;;
4700;SDS011;8724;51.272;6.554;2022-12-18T13:13:47;13.80;;;11.70;;
4700;SDS011;8724;51.272;6.554;2022-12-18T13:16:18;12.63;;;11.33;;
4700;SDS011;8724;51.272;6.554;2022-12-18T13:18:48;15.90;;;12.33;;
4700;SDS011;8724;51.272;6.554;2022-12-18T13:21:20;14.67;;;12.63;;
4700;SDS011;8724;51.272;6.554;2022-12-18T13:23:55;15.87;;;13.67;;
4700;SDS011;8724;51.272;6.554;2022-12-18T13:26:31;14.90;;;11.53;;
4700;SDS011;8724;51.272;6.554;2022-12-18T13:29:00;14.70;;;11.83;;
4700;SDS011;8724;51.272;6.554;2022-12-18T13:34:35;15.10;;;12.33;;
4700;SDS011;8724;51.272;6.554;2022-12-18T13:43:38;16.80;;;13.20;;
4700;SDS011;8724;51.272;6.554;2022-12-18T13:46:20;14.30;;;12.80;;
4700;SDS011;8724;51.272;6.554;2022-12-18T13:48:52;14.87;;;13.27;;
4700;SDS011;8724;51.272;6.554;2022-12-18T13:51:25;14.03;;;12.40;;
4700;SDS011;8724;51.272;6.554;2022-12-18T13:53:55;16.20;;;13.07;;
4700;SDS011;8724;51.272;6.554;2022-12-18T13:56:28;14.17;;;11.87;;
4700;SDS011;8724;51.272;6.554;2022-12-18T13:59:19;18.27;;;14.00;;
4700;SDS011;8724;51.272;6.554;2022-12-18T14:01:52;18.10;;;16.20;;
4700;SDS011;8724;51.272;6.554;2022-12-18T14:04:25;19.60;;;17.43;;
4700;SDS011;8724;51.272;6.554;2022-12-18T14:06:55;25.73;;;23.10;;
4700;SDS011;8724;51.272;6.554;2022-12-18T14:09:27;42.90;;;32.50;;
4700;SDS011;8724;51.272;6.554;2022-12-18T14:11:58;33.87;;;23.97;;
4700;SDS011;8724;51.272;6.554;2022-12-18T14:14:48;21.20;;;18.30;;
4700;SDS011;8724;51.272;6.554;2022-12-18T14:17:20;19.10;;;15.83;;
4700;SDS011;8724;51.272;6.554;2022-12-18T14:19:50;16.37;;;14.67;;
4700;SDS011;8724;51.272;6.554;2022-12-18T14:22:19;17.53;;;14.30;;
4700;SDS011;8724;51.272;6.554;2022-12-18T14:25:06;16.37;;;14.63;;
4700;SDS011;8724;51.272;6.554;2022-12-18T14:27:44;15.33;;;13.03;;
4700;SDS011;8724;51.272;6.554;2022-12-18T14:30:28;15.40;;;13.10;;
4700;SDS011;8724;51.272;6.554;2022-12-18T14:33:02;17.40;;;13.27;;
4700;SDS011;8724;51.272;6.554;2022-12-18T14:35:31;15.20;;;13.60;;
4700;SDS011;8724;51.272;6.554;2022-12-18T14:38:09;16.77;;;14.70;;
4700;SDS011;8724;51.272;6.554;2022-12-18T14:40:51;16.83;;;14.33;;
4700;SDS011;8724;51.272;6.554;2022-12-18T14:43:23;15.73;;;14.03;;
4700;SDS011;8724;51.272;6.554;2022-12-18T14:45:52;18.10;;;14.80;;
4700;SDS011;8724;51.272;6.554;2022-12-18T14:48:22;15.60;;;13.93;;
4700;SDS011;8724;51.272;6.554;2022-12-18T14:51:01;14.57;;;13.00;;
4700;SDS011;8724;51.272;6.554;2022-12-18T14:53:33;15.83;;;13.70;;
4700;SDS011;8724;51.272;6.554;2022-12-18T14:56:12;15.00;;;13.43;;
4700;SDS011;8724;51.272;6.554;2022-12-18T14:58:46;19.13;;;14.93;;
4700;SDS011;8724;51.272;6.554;2022-12-18T15:01:21;14.57;;;13.07;;
4700;SDS011;8724;51.272;6.554;2022-12-18T15:03:51;15.27;;;13.67;;
4700;SDS011;8724;51.272;6.554;2022-12-18T15:06:24;16.90;;;15.10;;
4700;SDS011;8724;51.272;6.554;2022-12-18T15:08:58;18.80;;;14.97;;
4700;SDS011;8724;51.272;6.554;2022-12-18T15:11:29;16.63;;;13.97;;
4700;SDS011;8724;51.272;6.554;2022-12-18T15:16:59;15.87;;;13.23;;
4700;SDS011;8724;51.272;6.554;2022-12-18T15:19:32;15.33;;;13.83;;
4700;SDS011;8724;51.272;6.554;2022-12-18T15:22:04;15.47;;;13.87;;
4700;SDS011;8724;51.272;6.554;2022-12-18T15:24:47;19.13;;;16.23;;
4700;SDS011;8724;51.272;6.554;2022-12-18T15:27:21;27.00;;;21.77;;
4700;SDS011;8724;51.272;6.554;2022-12-18T15:30:01;22.83;;;18.97;;
4700;SDS011;8724;51.272;6.554;2022-12-18T15:32:44;21.33;;;17.60;;
4700;SDS011;8724;51.272;6.554;2022-12-18T15:35:14;18.43;;;15.90;;
4700;SDS011;8724;51.272;6.554;2022-12-18T15:37:44;17.07;;;15.27;;
4700;SDS011;8724;51.272;6.554;2022-12-18T15:40:13;17.33;;;14.87;;
4700;SDS011;8724;51.272;6.554;2022-12-18T15:42:43;17.00;;;14.73;;
4700;SDS011;8724;51.272;6.554;2022-12-18T15:45:29;16.03;;;14.37;;
4700;SDS011;8724;51.272;6.554;2022-12-18T15:47:59;18.50;;;15.13;;
4700;SDS011;8724;51.272;6.554;2022-12-18T15:50:27;19.40;;;16.10;;